Time;durP1;ratioP1;P1;durP2;ratioP2;P2;SDS_P1;SDS_P2;PMS_P1;PMS_P2;Temp;Humidity;BMP_temperature;BMP_pressure;BME280_temperature;BME280_humidity;BME280_pressure;Samples;Min_cycle;Max_cycle;Signal;HPM_P1;HPM_P2
2022/10/14 00:01:13;;;;;;;;;;;11.40;99.90;;;;;;5069325;28;19928;-56
2022/10/14 00:03:41;;;;;;;;;;;11.50;99.90;;;;;;5051081;28;20402;-56
2022/10/14 00:06:11;;;;;;;;;;;11.50;99.90;;;;;;5029872;28;19928;-56
2022/10/14 00:08:39;;;;;;;;;;;11.50;99.90;;;;;;4954939;28;19926;-57
2022/10/14 00:11:23;;;;;;;;;;;11.60;99.90;;;;;;4949697;28;20373;-56
2022/10/14 00:13:54;;;;;;;;;;;11.50;99.90;;;;;;5002873;28;19934;-56
2022/10/14 00:16:27;;;;;;;;;;;11.50;99.90;;;;;;4966681;28;20239;-56
2022/10/14 00:18:55;;;;;;;;;;;11.50;99.90;;;;;;5019965;28;19924;-56
2022/10/14 00:21:23;;;;;;;;;;;11.40;99.90;;;;;;5064258;28;19924;-56
2022/10/14 00:23:50;;;;;;;;;;;11.40;99.90;;;;;;5017677;28;20279;-56
2022/10/14 00:26:19;;;;;;;;;;;11.40;99.90;;;;;;5069039;28;19924;-57
2022/10/14 00:28:47;;;;;;;;;;;11.40;99.90;;;;;;5048600;28;19931;-56
2022/10/14 00:31:14;;;;;;;;;;;11.40;99.90;;;;;;4996304;28;19926;-56
2022/10/14 00:33:44;;;;;;;;;;;11.30;99.90;;;;;;5030158;28;19925;-56
2022/10/14 00:36:12;;;;;;;;;;;11.30;99.90;;;;;;5032860;28;19926;-55
2022/10/14 00:38:40;;;;;;;;;;;11.30;99.90;;;;;;5022259;28;20552;-56
2022/10/14 00:41:09;;;;;;;;;;;11.30;99.90;;;;;;5014158;28;19926;-56
2022/10/14 00:43:50;;;;;;;;;;;11.40;99.90;;;;;;4987521;28;19925;-56
2022/10/14 00:46:18;;;;;;;;;;;11.40;99.90;;;;;;5053108;28;20377;-56
2022/10/14 00:48:45;;;;;;;;;;;11.40;99.90;;;;;;5023362;28;19924;-56
2022/10/14 00:51:13;;;;;;;;;;;11.40;99.90;;;;;;5034242;28;19924;-56
2022/10/14 00:53:41;;;;;;;;;;;11.40;99.90;;;;;;5050740;28;19924;-56
2022/10/14 00:56:10;;;;;;;;;;;11.40;99.90;;;;;;5017501;28;19934;-56
2022/10/14 00:58:37;;;;;;;;;;;11.40;99.90;;;;;;5057111;28;19925;-56
2022/10/14 01:01:06;;;;;;;;;;;11.40;99.90;;;;;;5077077;28;19936;-56
2022/10/14 01:03:35;;;;;;;;;;;11.30;99.90;;;;;;5046840;28;19935;-56
2022/10/14 01:06:10;;;;;;;;;;;11.30;99.90;;;;;;5028686;28;19933;-56
2022/10/14 01:08:43;;;;;;;;;;;11.20;99.90;;;;;;5050426;28;19931;-56
2022/10/14 01:11:29;;;;;;;;;;;11.20;99.90;;;;;;5068227;28;20474;-56
2022/10/14 01:14:05;;;;;;;;;;;11.10;99.90;;;;;;4966073;28;19937;-56
2022/10/14 01:16:32;;;;;;;;;;;11.10;99.90;;;;;;4962546;28;19933;-56
2022/10/14 01:19:26;;;;;;;;;;;11.00;99.90;;;;;;5009226;28;19928;-56
2022/10/14 01:22:04;;;;;;;;;;;10.90;99.90;;;;;;4968442;28;19926;-55
2022/10/14 01:24:32;;;;;;;;;;;10.90;99.90;;;;;;5037459;28;20537;-56
2022/10/14 01:27:08;;;;;;;;;;;10.80;99.90;;;;;;5016436;28;19935;-55
2022/10/14 01:29:41;;;;;;;;;;;10.70;99.90;;;;;;4981905;28;19929;-55
2022/10/14 01:32:13;;;;;;;;;;;10.70;99.90;;;;;;5023660;28;19934;-56
2022/10/14 01:34:50;;;;;;;;;;;10.60;99.90;;;;;;4951879;28;19937;-56
2022/10/14 01:37:23;;;;;;;;;;;10.50;99.90;;;;;;4953431;28;19933;-56
2022/10/14 01:39:56;;;;;;;;;;;10.50;99.90;;;;;;5031471;28;20401;-56
2022/10/14 01:42:26;;;;;;;;;;;10.50;99.90;;;;;;4965559;28;19942;-56
2022/10/14 01:45:01;;;;;;;;;;;10.40;99.90;;;;;;5047206;28;19933;-56
2022/10/14 01:47:31;;;;;;;;;;;10.40;99.90;;;;;;4970043;28;19926;-56
2022/10/14 01:50:06;;;;;;;;;;;10.30;99.90;;;;;;5039583;28;19933;-55
2022/10/14 01:52:37;;;;;;;;;;;10.30;99.90;;;;;;5024853;28;19934;-56
2022/10/14 01:55:08;;;;;;;;;;;10.20;99.90;;;;;;4950436;28;20409;-56
2022/10/14 01:57:37;;;;;;;;;;;10.20;99.90;;;;;;5045265;28;19925;-56
2022/10/14 02:00:06;;;;;;;;;;;11.20;99.90;;;;;;4990106;28;19926;-56
2022/10/14 02:02:40;;;;;;;;;;;10.10;99.90;;;;;;4967877;28;19926;-56
2022/10/14 02:05:15;;;;;;;;;;;10.10;99.90;;;;;;5033686;28;20544;-56
2022/10/14 02:07:45;;;;;;;;;;;10.10;99.90;;;;;;5036276;28;19933;-56
2022/10/14 02:10:20;;;;;;;;;;;10.00;99.90;;;;;;5036182;28;20389;-56
2022/10/14 02:13:06;;;;;;;;;;;10.00;99.90;;;;;;4968337;28;20301;-56
2022/10/14 02:15:42;;;;;;;;;;;10.00;99.90;;;;;;5035997;28;20324;-56
2022/10/14 02:18:09;;;;;;;;;;;10.00;99.90;;;;;;5038518;28;19926;-55
2022/10/14 02:20:57;;;;;;;;;;;10.00;99.90;;;;;;4987805;28;19934;-55
2022/10/14 02:23:47;;;;;;;;;;;10.00;99.90;;;;;;5028611;28;19933;-55
2022/10/14 02:26:15;;;;;;;;;;;10.00;99.90;;;;;;5045120;28;19933;-56
2022/10/14 02:28:43;;;;;;;;;;;10.00;99.90;;;;;;5074447;28;19924;-55
2022/10/14 02:31:12;;;;;;;;;;;10.00;99.90;;;;;;5002899;28;19953;-56
2022/10/14 02:33:45;;;;;;;;;;;10.00;99.90;;;;;;5039347;28;19926;-56
2022/10/14 02:36:15;;;;;;;;;;;10.00;99.90;;;;;;4972417;28;19933;-55
2022/10/14 02:38:44;;;;;;;;;;;10.00;99.90;;;;;;4987448;28;19926;-56
2022/10/14 02:41:13;;;;;;;;;;;10.10;99.90;;;;;;4972391;28;19926;-55
2022/10/14 02:43:41;;;;;;;;;;;10.10;99.90;;;;;;4972249;28;19930;-56
2022/10/14 02:46:08;;;;;;;;;;;10.10;99.90;;;;;;5038953;28;19926;-55
2022/10/14 02:48:36;;;;;;;;;;;10.20;99.90;;;;;;4986707;28;20404;-56
2022/10/14 02:51:03;;;;;;;;;;;10.20;99.90;;;;;;4972149;28;19926;-56
2022/10/14 02:53:30;;;;;;;;;;;10.20;99.90;;;;;;4987438;28;19960;-55
2022/10/14 02:55:58;;;;;;;;;;;10.30;99.90;;;;;;5039179;28;19933;-55
2022/10/14 02:58:25;;;;;;;;;;;10.30;99.90;;;;;;5070226;28;19943;-55
2022/10/14 03:00:55;;;;;;;;;;;10.30;99.90;;;;;;5089609;28;19944;-55
2022/10/14 03:03:24;;;;;;;;;;;10.30;99.90;;;;;;5056089;28;19925;-56
2022/10/14 03:05:51;;;;;;;;;;;10.30;99.90;;;;;;5055654;28;19947;-56
2022/10/14 03:08:20;;;;;;;;;;;10.30;99.90;;;;;;5038488;28;19937;-56
2022/10/14 03:10:48;;;;;;;;;;;10.40;99.90;;;;;;5038748;28;19926;-56
2022/10/14 03:13:15;;;;;;;;;;;10.40;99.90;;;;;;5038661;28;20671;-56
2022/10/14 03:15:49;;;;;;;;;;;10.30;99.90;;;;;;5038634;28;19934;-55
2022/10/14 03:18:18;;;;;;;;;;;10.30;99.90;;;;;;5038695;28;20400;-56
2022/10/14 03:20:48;;;;;;;;;;;10.30;99.90;;;;;;4971937;28;19926;-56
2022/10/14 03:23:20;;;;;;;;;;;10.30;99.90;;;;;;5038700;28;19953;-55
2022/10/14 03:25:50;;;;;;;;;;;10.30;99.90;;;;;;5038072;28;19930;-56
2022/10/14 03:28:25;;;;;;;;;;;10.30;99.90;;;;;;5054974;28;19925;-56
2022/10/14 03:31:11;;;;;;;;;;;10.30;99.90;;;;;;5073194;28;19925;-55
2022/10/14 03:34:02;;;;;;;;;;;10.30;99.90;;;;;;5067512;28;20409;-56
2022/10/14 03:36:30;;;;;;;;;;;10.30;99.90;;;;;;5088899;28;20387;-56
2022/10/14 03:38:58;;;;;;;;;;;10.30;99.90;;;;;;5088664;28;19925;-55
2022/10/14 03:41:48;;;;;;;;;;;10.20;99.90;;;;;;5055386;28;19931;-56
2022/10/14 03:44:20;;;;;;;;;;;10.20;99.90;;;;;;5088609;28;19925;-56
2022/10/14 03:47:16;;;;;;;;;;;10.20;99.90;;;;;;5059383;28;20405;-56
2022/10/14 03:49:45;;;;;;;;;;;10.20;99.90;;;;;;5055097;28;19999;-55
2022/10/14 03:52:21;;;;;;;;;;;10.20;99.90;;;;;;5071786;28;20387;-55
2022/10/14 03:54:59;;;;;;;;;;;10.20;99.90;;;;;;5054968;28;20379;-56
2022/10/14 03:57:28;;;;;;;;;;;10.10;99.90;;;;;;5054903;28;20280;-55
2022/10/14 03:59:58;;;;;;;;;;;10.10;99.90;;;;;;5054943;28;19932;-56
2022/10/14 04:02:39;;;;;;;;;;;10.10;99.90;;;;;;5072723;28;19931;-55
2022/10/14 04:05:32;;;;;;;;;;;10.10;99.90;;;;;;5054880;28;19932;-55
2022/10/14 04:08:04;;;;;;;;;;;10.10;99.90;;;;;;5087017;28;20411;-56
2022/10/14 04:10:34;;;;;;;;;;;10.10;99.90;;;;;;5054691;28;19925;-56
2022/10/14 04:13:01;;;;;;;;;;;10.10;99.90;;;;;;5054467;28;19935;-55
2022/10/14 04:15:34;;;;;;;;;;;10.10;99.90;;;;;;5087333;28;20407;-55
2022/10/14 04:18:28;;;;;;;;;;;10.10;99.90;;;;;;5069428;28;19925;-56
2022/10/14 04:21:02;;;;;;;;;;;10.20;99.90;;;;;;5071123;28;19924;-55
2022/10/14 04:23:30;;;;;;;;;;;10.20;99.90;;;;;;5087870;28;19925;-56
2022/10/14 04:26:05;;;;;;;;;;;10.20;99.90;;;;;;5087945;28;19947;-56
2022/10/14 04:28:33;;;;;;;;;;;10.20;99.90;;;;;;4952420;28;19926;-56
2022/10/14 04:31:09;;;;;;;;;;;10.30;99.90;;;;;;5036746;28;20344;-55
2022/10/14 04:33:48;;;;;;;;;;;10.20;99.90;;;;;;4985856;28;19926;-55
2022/10/14 04:36:21;;;;;;;;;;;10.40;99.90;;;;;;4970696;28;19926;-55
2022/10/14 04:38:49;;;;;;;;;;;10.40;99.90;;;;;;4970495;28;19926;-56
2022/10/14 04:41:16;;;;;;;;;;;10.50;99.90;;;;;;4952663;28;20397;-56
2022/10/14 04:43:47;;;;;;;;;;;10.50;99.90;;;;;;5037207;28;19941;-56
2022/10/14 04:46:24;;;;;;;;;;;10.50;99.90;;;;;;4985448;28;19926;-55
2022/10/14 04:48:52;;;;;;;;;;;10.60;99.90;;;;;;4950457;28;19930;-57
2022/10/14 04:51:23;;;;;;;;;;;10.60;99.90;;;;;;4962732;28;19933;-55
2022/10/14 04:54:17;;;;;;;;;;;10.70;99.90;;;;;;4952334;28;19926;-56
2022/10/14 04:56:52;;;;;;;;;;;10.70;99.90;;;;;;4986188;28;19940;-56
2022/10/14 04:59:19;;;;;;;;;;;10.70;99.90;;;;;;5083605;28;19935;-56
2022/10/14 05:02:13;;;;;;;;;;;10.70;99.90;;;;;;5029313;28;19934;-56
2022/10/14 05:04:49;;;;;;;;;;;10.80;99.90;;;;;;4960050;28;19937;-56
2022/10/14 05:07:17;;;;;;;;;;;10.80;99.90;;;;;;5029037;28;20360;-56
2022/10/14 05:09:49;;;;;;;;;;;10.80;99.90;;;;;;5047198;28;19932;-55
2022/10/14 05:12:34;;;;;;;;;;;10.80;99.90;;;;;;5014082;28;19934;-56
2022/10/14 05:15:04;;;;;;;;;;;10.80;99.90;;;;;;5065140;28;19925;-56
2022/10/14 05:17:38;;;;;;;;;;;10.90;99.90;;;;;;5028010;28;19926;-55
2022/10/14 05:20:07;;;;;;;;;;;10.90;99.90;;;;;;5013535;28;19949;-56
2022/10/14 05:22:37;;;;;;;;;;;10.90;99.90;;;;;;5015737;28;19934;-55
2022/10/14 05:25:05;;;;;;;;;;;10.90;99.90;;;;;;5030838;28;19925;-56
2022/10/14 05:27:33;;;;;;;;;;;10.80;99.90;;;;;;5048263;28;19928;-56
2022/10/14 05:30:03;;;;;;;;;;;10.90;99.90;;;;;;5065081;28;19947;-56
2022/10/14 05:32:33;;;;;;;;;;;10.90;99.90;;;;;;5029359;28;19931;-56
2022/10/14 05:35:04;;;;;;;;;;;10.90;99.90;;;;;;5033556;28;19924;-56
2022/10/14 05:37:36;;;;;;;;;;;10.90;99.90;;;;;;5050114;28;19924;-56
2022/10/14 05:40:04;;;;;;;;;;;10.90;99.90;;;;;;5050204;28;19932;-55
2022/10/14 05:42:34;;;;;;;;;;;10.90;99.90;;;;;;5083097;28;19924;-55
2022/10/14 05:45:03;;;;;;;;;;;10.90;99.90;;;;;;5049758;28;20411;-56
2022/10/14 05:47:33;;;;;;;;;;;10.90;99.90;;;;;;5029739;28;19930;-56
2022/10/14 05:50:10;;;;;;;;;;;10.90;99.90;;;;;;5013282;28;19933;-55
2022/10/14 05:52:42;;;;;;;;;;;10.90;99.90;;;;;;4955112;28;19938;-56
2022/10/14 05:55:16;;;;;;;;;;;10.90;99.90;;;;;;4994054;28;19926;-56
2022/10/14 05:57:45;;;;;;;;;;;10.90;99.90;;;;;;5047107;28;19932;-55
2022/10/14 06:00:18;;;;;;;;;;;10.90;99.90;;;;;;5037439;28;19927;-55
2022/10/14 06:02:57;;;;;;;;;;;10.90;99.90;;;;;;5032324;28;19931;-56
2022/10/14 06:05:26;;;;;;;;;;;10.90;99.90;;;;;;5049192;28;19936;-57
2022/10/14 06:07:54;;;;;;;;;;;10.90;99.90;;;;;;5053587;28;19928;-56
2022/10/14 06:10:21;;;;;;;;;;;10.90;99.90;;;;;;5053576;28;19924;-56
2022/10/14 06:12:49;;;;;;;;;;;11.00;99.90;;;;;;5069784;28;19924;-56
2022/10/14 06:15:16;;;;;;;;;;;11.00;99.90;;;;;;5087298;28;19951;-56
2022/10/14 06:17:44;;;;;;;;;;;11.00;99.90;;;;;;5033225;28;19930;-56
2022/10/14 06:20:11;;;;;;;;;;;11.00;99.90;;;;;;5016719;28;19927;-56
2022/10/14 06:22:39;;;;;;;;;;;11.00;99.90;;;;;;4955569;28;19938;-57
2022/10/14 06:25:06;;;;;;;;;;;11.00;99.90;;;;;;5071246;28;19934;-56
2022/10/14 06:27:34;;;;;;;;;;;11.00;99.90;;;;;;5070621;28;19931;-56
2022/10/14 06:30:01;;;;;;;;;;;11.00;99.90;;;;;;5086632;28;19925;-56
2022/10/14 06:32:29;;;;;;;;;;;11.00;99.90;;;;;;5020010;28;19926;-56
2022/10/14 06:34:57;;;;;;;;;;;11.00;99.90;;;;;;5069134;28;19929;-57
2022/10/14 06:37:24;;;;;;;;;;;11.00;99.90;;;;;;5064227;28;19925;-56
2022/10/14 06:39:52;;;;;;;;;;;11.00;99.90;;;;;;4983986;28;19926;-56
2022/10/14 06:42:19;;;;;;;;;;;11.10;99.90;;;;;;4969725;28;19926;-57
2022/10/14 06:44:46;;;;;;;;;;;11.10;99.90;;;;;;5062133;28;19982;-57
2022/10/14 06:47:14;;;;;;;;;;;11.10;99.90;;;;;;5052835;28;19924;-58
2022/10/14 06:49:41;;;;;;;;;;;11.10;99.90;;;;;;5018359;28;19926;-55
2022/10/14 06:52:09;;;;;;;;;;;11.10;99.90;;;;;;4949642;28;19926;-56
2022/10/14 06:54:36;;;;;;;;;;;11.10;99.90;;;;;;5051859;28;19924;-57
2022/10/14 06:57:06;;;;;;;;;;;11.10;99.90;;;;;;5002179;28;19925;-57
2022/10/14 06:59:34;;;;;;;;;;;11.10;99.90;;;;;;5030276;28;19938;-57
2022/10/14 07:02:01;;;;;;;;;;;11.10;99.90;;;;;;5012388;28;19950;-56
2022/10/14 07:04:29;;;;;;;;;;;11.20;99.90;;;;;;5006121;28;19928;-56
2022/10/14 07:06:57;;;;;;;;;;;11.10;99.90;;;;;;5011297;28;19930;-58
2022/10/14 07:09:24;;;;;;;;;;;11.10;99.90;;;;;;4964025;28;19941;-56
2022/10/14 07:11:52;;;;;;;;;;;11.10;99.90;;;;;;4949132;28;20309;-56
2022/10/14 07:14:19;;;;;;;;;;;11.10;99.90;;;;;;5036125;28;19924;-56
2022/10/14 07:16:47;;;;;;;;;;;11.00;99.90;;;;;;5016730;28;20301;-56
2022/10/14 07:19:14;;;;;;;;;;;11.00;99.90;;;;;;4984555;28;20296;-56
2022/10/14 07:21:44;;;;;;;;;;;10.90;99.90;;;;;;4948609;28;20870;-55
2022/10/14 07:24:11;;;;;;;;;;;10.90;99.90;;;;;;5022204;28;19932;-56
2022/10/14 07:26:39;;;;;;;;;;;10.80;99.90;;;;;;4951007;28;19930;-55
2022/10/14 07:29:06;;;;;;;;;;;10.80;99.90;;;;;;5023793;28;19926;-56
2022/10/14 07:31:34;;;;;;;;;;;10.70;99.90;;;;;;5019237;28;19926;-56
2022/10/14 07:34:01;;;;;;;;;;;10.70;99.90;;;;;;4958375;28;19927;-56
2022/10/14 07:36:29;;;;;;;;;;;10.70;99.90;;;;;;5013602;28;19934;-57
2022/10/14 07:38:56;;;;;;;;;;;10.60;99.90;;;;;;5039523;28;19939;-57
2022/10/14 07:41:24;;;;;;;;;;;10.70;99.90;;;;;;4977838;28;19937;-57
2022/10/14 07:43:54;;;;;;;;;;;10.60;99.90;;;;;;4969336;28;19945;-57
2022/10/14 07:46:30;;;;;;;;;;;10.60;99.90;;;;;;4967290;28;19926;-56
2022/10/14 07:49:05;;;;;;;;;;;10.60;99.90;;;;;;5033392;28;19926;-57
2022/10/14 07:51:32;;;;;;;;;;;10.60;99.90;;;;;;4959165;28;19945;-58
2022/10/14 07:54:01;;;;;;;;;;;10.60;99.90;;;;;;5025197;28;19924;-57
2022/10/14 07:56:28;;;;;;;;;;;10.60;99.90;;;;;;5065081;28;19948;-56
2022/10/14 07:58:57;;;;;;;;;;;10.70;99.90;;;;;;5005729;28;20305;-57
2022/10/14 08:01:24;;;;;;;;;;;10.70;99.90;;;;;;5039463;28;19926;-57
2022/10/14 08:03:52;;;;;;;;;;;10.80;99.90;;;;;;4991825;28;20073;-57
2022/10/14 08:06:19;;;;;;;;;;;10.90;99.90;;;;;;4987208;28;19929;-56
2022/10/14 08:08:47;;;;;;;;;;;11.00;99.90;;;;;;5043512;28;19925;-57
2022/10/14 08:11:16;;;;;;;;;;;11.10;99.90;;;;;;5085061;28;19932;-57
2022/10/14 08:13:44;;;;;;;;;;;11.20;99.90;;;;;;5036525;28;19931;-56
2022/10/14 08:16:15;;;;;;;;;;;11.20;99.90;;;;;;4967713;28;19930;-58
2022/10/14 08:18:42;;;;;;;;;;;11.40;99.90;;;;;;4975635;28;20093;-57
2022/10/14 08:21:10;;;;;;;;;;;11.40;99.90;;;;;;5031100;28;19930;-57
2022/10/14 08:23:37;;;;;;;;;;;11.50;99.90;;;;;;4997423;28;19932;-57
2022/10/14 08:26:15;;;;;;;;;;;11.50;99.90;;;;;;5069177;28;20293;-57
2022/10/14 08:28:43;;;;;;;;;;;11.60;99.90;;;;;;5025815;28;20520;-58
2022/10/14 08:31:10;;;;;;;;;;;11.60;99.90;;;;;;5066044;28;20454;-57
2022/10/14 08:33:38;;;;;;;;;;;11.70;99.90;;;;;;4996520;28;19928;-56
2022/10/14 08:36:06;;;;;;;;;;;11.70;99.90;;;;;;4970864;28;19926;-56
2022/10/14 08:38:33;;;;;;;;;;;11.80;99.90;;;;;;5034929;28;19928;-57
2022/10/14 08:41:00;;;;;;;;;;;11.90;99.90;;;;;;5037111;28;19933;-56
2022/10/14 08:43:40;;;;;;;;;;;11.90;99.90;;;;;;5000966;28;19924;-57
2022/10/14 08:46:16;;;;;;;;;;;12.00;99.90;;;;;;5050337;28;21516;-57
2022/10/14 08:48:44;;;;;;;;;;;12.10;99.90;;;;;;5008851;28;19930;-57
2022/10/14 08:51:14;;;;;;;;;;;12.20;99.90;;;;;;4948055;28;19934;-56
2022/10/14 08:53:47;;;;;;;;;;;12.30;99.90;;;;;;5037650;28;19925;-56
2022/10/14 08:56:16;;;;;;;;;;;12.40;99.90;;;;;;5042119;28;20404;-56
2022/10/14 08:58:48;;;;;;;;;;;12.40;99.90;;;;;;5055400;28;19936;-57
2022/10/14 09:01:30;;;;;;;;;;;12.50;99.90;;;;;;4984465;28;19925;-55
2022/10/14 09:03:58;;;;;;;;;;;12.60;99.90;;;;;;5007880;28;20353;-56
2022/10/14 09:06:28;;;;;;;;;;;12.70;99.90;;;;;;4948056;29;19931;-56
2022/10/14 09:09:15;;;;;;;;;;;12.80;99.90;;;;;;4968836;28;19934;-56
2022/10/14 09:11:45;;;;;;;;;;;12.90;99.90;;;;;;4994840;28;19926;-57
2022/10/14 09:14:15;;;;;;;;;;;13.00;99.90;;;;;;5033811;28;19928;-57
2022/10/14 09:16:45;;;;;;;;;;;13.10;99.90;;;;;;5068469;28;19935;-56
2022/10/14 09:19:30;;;;;;;;;;;13.20;99.90;;;;;;5041550;28;19953;-57
2022/10/14 09:21:58;;;;;;;;;;;13.20;99.90;;;;;;4966942;28;19930;-56
2022/10/14 09:24:36;;;;;;;;;;;13.20;99.90;;;;;;5054681;28;19931;-57
2022/10/14 09:27:10;;;;;;;;;;;13.20;99.90;;;;;;5043647;28;19930;-57
2022/10/14 09:29:41;;;;;;;;;;;13.20;99.90;;;;;;4950899;28;19931;-57
2022/10/14 09:32:11;;;;;;;;;;;13.30;99.90;;;;;;4950959;28;19934;-57
2022/10/14 09:34:43;;;;;;;;;;;13.40;99.90;;;;;;5036617;28;19933;-57
2022/10/14 09:37:14;;;;;;;;;;;13.40;99.90;;;;;;4970386;28;20377;-57
2022/10/14 09:39:41;;;;;;;;;;;13.50;99.90;;;;;;5072221;28;20260;-57
2022/10/14 09:42:13;;;;;;;;;;;13.60;99.90;;;;;;5072153;28;19931;-57
2022/10/14 09:44:41;;;;;;;;;;;13.60;99.90;;;;;;4984834;28;19934;-57
2022/10/14 09:47:10;;;;;;;;;;;13.60;99.90;;;;;;4969054;28;19926;-57
2022/10/14 09:49:48;;;;;;;;;;;13.60;99.90;;;;;;4951053;28;19927;-57
2022/10/14 09:52:21;;;;;;;;;;;13.60;99.90;;;;;;4950537;28;19927;-57
2022/10/14 09:54:55;;;;;;;;;;;13.70;99.90;;;;;;5051685;28;20297;-57
2022/10/14 09:57:23;;;;;;;;;;;13.50;99.90;;;;;;5033780;28;20371;-58
2022/10/14 09:59:59;;;;;;;;;;;13.90;99.90;;;;;;5072226;28;20319;-57
2022/10/14 10:02:41;;;;;;;;;;;14.00;99.90;;;;;;5006712;28;19938;-57
2022/10/14 10:05:20;;;;;;;;;;;14.10;99.90;;;;;;5012689;28;19942;-57
2022/10/14 10:08:00;;;;;;;;;;;14.20;99.90;;;;;;4995522;28;19932;-57
2022/10/14 10:10:30;;;;;;;;;;;14.20;99.90;;;;;;5087271;28;20371;-57
2022/10/14 10:12:58;;;;;;;;;;;14.10;99.90;;;;;;5052332;28;19926;-57
2022/10/14 10:15:25;;;;;;;;;;;14.20;99.90;;;;;;4998336;28;19927;-58
2022/10/14 10:17:53;;;;;;;;;;;14.10;99.90;;;;;;5007108;28;19928;-58
2022/10/14 10:20:27;;;;;;;;;;;14.00;99.90;;;;;;5008522;28;19934;-58
2022/10/14 10:22:55;;;;;;;;;;;13.90;99.90;;;;;;4954836;28;19933;-58
2022/10/14 10:25:25;;;;;;;;;;;13.90;99.90;;;;;;4957423;28;19929;-59
2022/10/14 10:27:53;;;;;;;;;;;13.90;99.90;;;;;;4960762;28;19930;-58
2022/10/14 10:30:28;;;;;;;;;;;14.00;99.90;;;;;;4965695;28;20294;-58
2022/10/14 10:33:15;;;;;;;;;;;14.10;99.90;;;;;;5045861;28;19942;-58
2022/10/14 10:35:49;;;;;;;;;;;14.20;99.90;;;;;;4974003;28;19933;-57
2022/10/14 10:38:19;;;;;;;;;;;14.30;99.90;;;;;;4956688;28;20085;-58
2022/10/14 10:40:56;;;;;;;;;;;14.50;99.90;;;;;;4961870;28;19926;-58
2022/10/14 10:43:39;;;;;;;;;;;14.50;99.90;;;;;;4964703;28;19941;-58
2022/10/14 10:46:25;;;;;;;;;;;14.60;99.90;;;;;;4970332;28;19933;-58
2022/10/14 10:48:56;;;;;;;;;;;14.60;99.90;;;;;;4989120;28;19926;-58
2022/10/14 10:51:37;;;;;;;;;;;14.60;99.90;;;;;;4981017;28;19941;-58
2022/10/14 10:54:05;;;;;;;;;;;14.70;99.90;;;;;;5031367;28;19938;-58
2022/10/14 10:56:38;;;;;;;;;;;14.90;99.90;;;;;;4988353;28;20413;-57
2022/10/14 10:59:15;;;;;;;;;;;15.10;99.90;;;;;;5048920;28;19932;-58
2022/10/14 11:02:02;;;;;;;;;;;15.20;99.90;;;;;;4983165;28;20072;-57
2022/10/14 11:04:41;;;;;;;;;;;15.30;99.90;;;;;;5029194;28;19933;-58
2022/10/14 11:12:58;;;;;;;;;;;15.80;99.90;;;;;;4972966;28;19926;-58
2022/10/14 11:15:29;;;;;;;;;;;16.10;99.90;;;;;;5032190;28;19934;-58
2022/10/14 11:18:02;;;;;;;;;;;16.40;99.90;;;;;;4980658;28;19930;-57
2022/10/14 11:20:30;;;;;;;;;;;16.70;99.90;;;;;;4955364;28;19941;-58
2022/10/14 11:23:00;;;;;;;;;;;16.90;99.90;;;;;;4987073;28;20412;-58
2022/10/14 11:25:49;;;;;;;;;;;17.20;99.90;;;;;;4982468;28;19926;-58
2022/10/14 11:28:22;;;;;;;;;;;17.60;99.90;;;;;;5030032;28;20389;-58
2022/10/14 11:30:59;;;;;;;;;;;17.70;99.90;;;;;;4967205;28;19937;-59
2022/10/14 11:33:43;;;;;;;;;;;17.70;99.90;;;;;;4970170;28;20459;-58
2022/10/14 11:36:13;;;;;;;;;;;17.60;99.90;;;;;;4987921;28;19937;-58
2022/10/14 11:39:01;;;;;;;;;;;17.50;99.90;;;;;;4996790;28;19934;-57
2022/10/14 11:41:47;;;;;;;;;;;17.30;99.90;;;;;;4981980;28;19926;-58
2022/10/14 11:44:31;;;;;;;;;;;17.10;99.90;;;;;;5030121;28;20379;-58
2022/10/14 11:47:01;;;;;;;;;;;16.90;99.90;;;;;;5036111;28;19927;-56
2022/10/14 11:49:31;;;;;;;;;;;16.70;99.90;;;;;;4975980;28;19929;-57
2022/10/14 11:52:02;;;;;;;;;;;16.50;99.90;;;;;;4962328;28;19949;-57
2022/10/14 11:54:38;;;;;;;;;;;16.40;99.90;;;;;;5032778;28;19926;-56
2022/10/14 11:57:18;;;;;;;;;;;16.20;99.90;;;;;;4986738;28;19933;-56
2022/10/14 11:59:48;;;;;;;;;;;16.10;99.90;;;;;;4966534;28;19933;-57
2022/10/14 12:02:19;;;;;;;;;;;15.90;99.90;;;;;;4967422;28;20297;-56
2022/10/14 12:04:59;;;;;;;;;;;15.90;99.90;;;;;;5005029;28;19933;-57
2022/10/14 12:07:50;;;;;;;;;;;15.80;99.90;;;;;;4958335;28;19942;-57
2022/10/14 12:10:41;;;;;;;;;;;15.80;99.90;;;;;;4963227;28;19949;-57
2022/10/14 12:13:13;;;;;;;;;;;15.70;99.90;;;;;;4990283;28;19945;-56
2022/10/14 12:15:47;;;;;;;;;;;15.80;99.90;;;;;;4972156;28;20409;-56
2022/10/14 12:18:18;;;;;;;;;;;15.80;99.90;;;;;;4957888;28;19949;-57
2022/10/14 12:20:45;;;;;;;;;;;15.80;99.90;;;;;;4965970;28;19934;-57
2022/10/14 12:23:28;;;;;;;;;;;15.80;99.90;;;;;;4993012;28;19924;-57
2022/10/14 12:26:00;;;;;;;;;;;15.90;99.90;;;;;;4967907;28;20024;-57
2022/10/14 12:28:34;;;;;;;;;;;15.90;99.90;;;;;;5037703;28;19926;-58
2022/10/14 12:31:21;;;;;;;;;;;15.90;99.90;;;;;;5037551;28;19941;-57
2022/10/14 12:34:14;;;;;;;;;;;15.90;99.90;;;;;;4989186;28;19927;-58
2022/10/14 12:36:45;;;;;;;;;;;15.80;99.90;;;;;;5013296;28;19934;-58
2022/10/14 12:39:16;;;;;;;;;;;15.80;99.90;;;;;;4964941;28;19926;-58
2022/10/14 12:41:47;;;;;;;;;;;15.70;99.90;;;;;;4962638;28;20305;-58
2022/10/14 12:44:17;;;;;;;;;;;15.70;99.90;;;;;;4953870;28;19930;-58
2022/10/14 12:46:48;;;;;;;;;;;15.70;99.90;;;;;;5027861;28;19937;-57
2022/10/14 12:49:22;;;;;;;;;;;15.70;99.90;;;;;;5050502;28;20449;-57
2022/10/14 12:52:16;;;;;;;;;;;15.60;99.90;;;;;;4962540;28;20370;-58
2022/10/14 12:54:45;;;;;;;;;;;15.60;99.90;;;;;;5002586;28;20369;-57
2022/10/14 12:57:19;;;;;;;;;;;15.40;99.90;;;;;;5005466;28;19924;-57
2022/10/14 12:59:50;;;;;;;;;;;15.20;99.90;;;;;;5031475;28;19933;-57
2022/10/14 13:02:25;;;;;;;;;;;14.90;99.90;;;;;;4981503;28;19926;-57
2022/10/14 13:04:53;;;;;;;;;;;14.60;99.90;;;;;;4966137;28;19926;-57
2022/10/14 13:07:50;;;;;;;;;;;14.40;99.90;;;;;;5036512;28;19930;-57
2022/10/14 13:10:36;;;;;;;;;;;14.30;99.90;;;;;;4983881;28;20389;-58
2022/10/14 13:13:29;;;;;;;;;;;14.20;99.90;;;;;;4986862;28;19926;-58
2022/10/14 13:16:00;;;;;;;;;;;14.20;99.90;;;;;;5056854;28;19925;-58
2022/10/14 13:18:31;;;;;;;;;;;14.20;99.90;;;;;;5049097;28;19932;-58
2022/10/14 13:20:59;;;;;;;;;;;14.30;99.90;;;;;;5032982;28;20408;-58
2022/10/14 13:23:29;;;;;;;;;;;14.30;99.90;;;;;;4990965;28;19924;-57
2022/10/14 13:26:17;;;;;;;;;;;14.40;99.90;;;;;;4992137;28;19930;-57
2022/10/14 13:29:03;;;;;;;;;;;14.40;99.90;;;;;;4978226;28;19926;-58
2022/10/14 13:31:37;;;;;;;;;;;14.60;99.90;;;;;;5032507;28;19934;-57
2022/10/14 13:34:23;;;;;;;;;;;14.70;99.90;;;;;;4964289;28;20416;-58
2022/10/14 13:37:03;;;;;;;;;;;14.80;99.90;;;;;;5037654;28;19929;-58
2022/10/14 13:39:31;;;;;;;;;;;14.80;99.90;;;;;;4972593;28;19930;-58
2022/10/14 13:41:59;;;;;;;;;;;14.80;99.90;;;;;;4978756;28;19930;-58
2022/10/14 13:44:27;;;;;;;;;;;14.80;99.90;;;;;;4978940;28;19929;-58
2022/10/14 13:46:55;;;;;;;;;;;14.80;99.90;;;;;;4978000;28;19929;-58
2022/10/14 13:49:26;;;;;;;;;;;14.70;99.90;;;;;;5049351;28;20436;-57
2022/10/14 13:51:55;;;;;;;;;;;14.60;99.90;;;;;;4984655;28;20317;-57
2022/10/14 13:54:27;;;;;;;;;;;14.50;99.90;;;;;;4992061;28;19926;-58
2022/10/14 13:57:01;;;;;;;;;;;14.50;99.90;;;;;;5030597;28;19927;-57
2022/10/14 13:59:48;;;;;;;;;;;14.40;99.90;;;;;;4947850;28;20408;-57
2022/10/14 14:02:41;;;;;;;;;;;14.30;99.90;;;;;;5019180;28;20309;-57
2022/10/14 14:05:13;;;;;;;;;;;14.30;99.90;;;;;;4966561;28;20296;-55
2022/10/14 14:07:42;;;;;;;;;;;14.30;99.90;;;;;;4981108;28;20441;-57
2022/10/14 14:10:29;;;;;;;;;;;14.20;99.90;;;;;;4982494;28;20421;-57
2022/10/14 14:13:00;;;;;;;;;;;14.20;99.90;;;;;;5015991;28;20305;-57
2022/10/14 14:15:28;;;;;;;;;;;14.20;99.90;;;;;;5020321;28;19930;-57
2022/10/14 14:17:55;;;;;;;;;;;14.20;99.90;;;;;;4970675;28;19937;-57
2022/10/14 14:20:25;;;;;;;;;;;14.20;99.90;;;;;;4957150;28;19934;-58
2022/10/14 14:22:52;;;;;;;;;;;14.30;99.90;;;;;;4952740;28;19934;-56
2022/10/14 14:25:20;;;;;;;;;;;14.30;99.90;;;;;;5002355;28;19927;-57
2022/10/14 14:28:01;;;;;;;;;;;14.30;99.90;;;;;;4991882;28;20414;-57
2022/10/14 14:30:29;;;;;;;;;;;14.30;99.90;;;;;;5006960;28;19937;-57
2022/10/14 14:32:58;;;;;;;;;;;14.30;99.90;;;;;;4972903;28;20270;-57
2022/10/14 14:35:26;;;;;;;;;;;14.20;99.90;;;;;;5038936;28;19930;-57
2022/10/14 14:37:53;;;;;;;;;;;14.20;99.90;;;;;;4985478;28;20306;-57
2022/10/14 14:40:27;;;;;;;;;;;14.20;99.90;;;;;;4968275;28;19930;-57
2022/10/14 14:43:00;;;;;;;;;;;14.20;99.90;;;;;;4966234;28;19937;-58
2022/10/14 14:45:33;;;;;;;;;;;14.20;99.90;;;;;;4956935;28;19937;-58
2022/10/14 14:48:02;;;;;;;;;;;14.30;99.90;;;;;;4969845;28;19933;-58
2022/10/14 14:50:35;;;;;;;;;;;14.30;99.90;;;;;;5013842;28;19942;-57
2022/10/14 14:53:28;;;;;;;;;;;14.30;99.90;;;;;;4968434;28;19934;-57